sensor_id;sensor_type;location;lat;lon;timestamp;P1;durP1;ratioP1;P2;durP2;ratioP2
59308;SDS011;48433;53.016;-2.260;2023-02-22T00:01:54;11.85;;;6.93;;
59308;SDS011;48433;53.016;-2.260;2023-02-22T00:04:40;10.35;;;6.13;;
59308;SDS011;48433;53.016;-2.260;2023-02-22T00:07:08;9.48;;;5.85;;
59308;SDS011;48433;53.016;-2.260;2023-02-22T00:09:36;10.18;;;5.95;;
59308;SDS011;48433;53.016;-2.260;2023-02-22T00:12:04;9.02;;;5.22;;
59308;SDS011;48433;53.016;-2.260;2023-02-22T00:14:31;8.45;;;5.28;;
59308;SDS011;48433;53.016;-2.260;2023-02-22T00:16:59;8.57;;;5.60;;
59308;SDS011;48433;53.016;-2.260;2023-02-22T00:19:28;9.48;;;5.07;;
59308;SDS011;48433;53.016;-2.260;2023-02-22T00:21:57;11.20;;;6.28;;
59308;SDS011;48433;53.016;-2.260;2023-02-22T00:24:26;12.13;;;6.95;;
59308;SDS011;48433;53.016;-2.260;2023-02-22T00:26:55;9.10;;;6.07;;
59308;SDS011;48433;53.016;-2.260;2023-02-22T00:29:23;8.45;;;5.35;;
59308;SDS011;48433;53.016;-2.260;2023-02-22T00:31:51;9.10;;;5.60;;
59308;SDS011;48433;53.016;-2.260;2023-02-22T00:34:20;8.93;;;5.28;;
59308;SDS011;48433;53.016;-2.260;2023-02-22T00:36:50;10.68;;;6.68;;
59308;SDS011;48433;53.016;-2.260;2023-02-22T00:39:17;9.90;;;5.90;;
59308;SDS011;48433;53.016;-2.260;2023-02-22T00:41:45;9.40;;;4.90;;
59308;SDS011;48433;53.016;-2.260;2023-02-22T00:44:13;9.55;;;5.68;;
59308;SDS011;48433;53.016;-2.260;2023-02-22T00:46:41;9.52;;;5.53;;
59308;SDS011;48433;53.016;-2.260;2023-02-22T00:49:09;10.02;;;6.43;;
59308;SDS011;48433;53.016;-2.260;2023-02-22T00:51:37;9.38;;;6.13;;
59308;SDS011;48433;53.016;-2.260;2023-02-22T00:54:05;8.48;;;5.90;;
59308;SDS011;48433;53.016;-2.260;2023-02-22T00:56:33;10.90;;;6.97;;
59308;SDS011;48433;53.016;-2.260;2023-02-22T00:59:03;10.43;;;6.10;;
59308;SDS011;48433;53.016;-2.260;2023-02-22T01:01:31;9.35;;;5.78;;
59308;SDS011;48433;53.016;-2.260;2023-02-22T01:03:59;9.93;;;6.25;;
59308;SDS011;48433;53.016;-2.260;2023-02-22T01:06:27;10.77;;;5.88;;
59308;SDS011;48433;53.016;-2.260;2023-02-22T01:08:58;10.05;;;5.85;;
59308;SDS011;48433;53.016;-2.260;2023-02-22T01:11:28;9.70;;;5.80;;
59308;SDS011;48433;53.016;-2.260;2023-02-22T01:13:56;9.27;;;5.75;;
59308;SDS011;48433;53.016;-2.260;2023-02-22T01:16:24;10.20;;;6.22;;
59308;SDS011;48433;53.016;-2.260;2023-02-22T01:18:52;8.77;;;5.68;;
59308;SDS011;48433;53.016;-2.260;2023-02-22T01:21:20;11.07;;;6.78;;
59308;SDS011;48433;53.016;-2.260;2023-02-22T01:23:48;8.52;;;5.45;;
59308;SDS011;48433;53.016;-2.260;2023-02-22T01:26:16;9.38;;;6.03;;
59308;SDS011;48433;53.016;-2.260;2023-02-22T01:28:43;8.77;;;5.70;;
59308;SDS011;48433;53.016;-2.260;2023-02-22T01:31:11;8.73;;;5.90;;
59308;SDS011;48433;53.016;-2.260;2023-02-22T01:33:39;11.27;;;5.88;;
59308;SDS011;48433;53.016;-2.260;2023-02-22T01:36:07;10.00;;;6.20;;
59308;SDS011;48433;53.016;-2.260;2023-02-22T01:38:37;11.85;;;6.30;;
59308;SDS011;48433;53.016;-2.260;2023-02-22T01:41:05;9.88;;;6.20;;
59308;SDS011;48433;53.016;-2.260;2023-02-22T01:43:35;9.32;;;5.93;;
59308;SDS011;48433;53.016;-2.260;2023-02-22T01:46:23;11.30;;;7.25;;
59308;SDS011;48433;53.016;-2.260;2023-02-22T01:48:57;10.45;;;6.03;;
59308;SDS011;48433;53.016;-2.260;2023-02-22T01:51:32;9.63;;;5.20;;
59308;SDS011;48433;53.016;-2.260;2023-02-22T01:54:17;9.80;;;5.88;;
59308;SDS011;48433;53.016;-2.260;2023-02-22T01:56:51;10.70;;;5.85;;
59308;SDS011;48433;53.016;-2.260;2023-02-22T01:59:27;9.30;;;6.18;;
59308;SDS011;48433;53.016;-2.260;2023-02-22T02:01:59;9.82;;;6.10;;
59308;SDS011;48433;53.016;-2.260;2023-02-22T02:04:27;11.48;;;6.95;;
59308;SDS011;48433;53.016;-2.260;2023-02-22T02:06:56;10.43;;;6.20;;
59308;SDS011;48433;53.016;-2.260;2023-02-22T02:09:29;11.10;;;5.53;;
59308;SDS011;48433;53.016;-2.260;2023-02-22T02:11:58;10.40;;;6.35;;
59308;SDS011;48433;53.016;-2.260;2023-02-22T02:14:28;9.82;;;5.40;;
59308;SDS011;48433;53.016;-2.260;2023-02-22T02:16:57;9.93;;;5.50;;
59308;SDS011;48433;53.016;-2.260;2023-02-22T02:38:53;9.05;;;5.03;;
59308;SDS011;48433;53.016;-2.260;2023-02-22T02:41:26;8.70;;;4.70;;
59308;SDS011;48433;53.016;-2.260;2023-02-22T02:46:34;8.45;;;4.97;;
59308;SDS011;48433;53.016;-2.260;2023-02-22T02:49:07;13.30;;;5.57;;
59308;SDS011;48433;53.016;-2.260;2023-02-22T02:51:40;9.05;;;5.30;;
59308;SDS011;48433;53.016;-2.260;2023-02-22T02:54:14;9.02;;;5.22;;
59308;SDS011;48433;53.016;-2.260;2023-02-22T02:56:42;8.77;;;4.75;;
59308;SDS011;48433;53.016;-2.260;2023-02-22T02:59:46;10.95;;;5.18;;
59308;SDS011;48433;53.016;-2.260;2023-02-22T03:04:40;10.18;;;5.22;;
59308;SDS011;48433;53.016;-2.260;2023-02-22T03:10:27;12.32;;;6.57;;
59308;SDS011;48433;53.016;-2.260;2023-02-22T03:18:52;9.95;;;5.30;;
59308;SDS011;48433;53.016;-2.260;2023-02-22T03:22:01;10.23;;;5.60;;
59308;SDS011;48433;53.016;-2.260;2023-02-22T03:24:44;10.32;;;6.20;;
59308;SDS011;48433;53.016;-2.260;2023-02-22T03:27:26;8.85;;;5.22;;
59308;SDS011;48433;53.016;-2.260;2023-02-22T03:30:03;10.65;;;6.40;;
59308;SDS011;48433;53.016;-2.260;2023-02-22T03:32:35;13.88;;;5.65;;
59308;SDS011;48433;53.016;-2.260;2023-02-22T03:35:06;11.32;;;5.68;;
59308;SDS011;48433;53.016;-2.260;2023-02-22T03:37:38;11.15;;;6.32;;
59308;SDS011;48433;53.016;-2.260;2023-02-22T03:40:14;10.80;;;5.47;;
59308;SDS011;48433;53.016;-2.260;2023-02-22T03:43:05;10.63;;;6.40;;
59308;SDS011;48433;53.016;-2.260;2023-02-22T03:45:43;10.75;;;6.13;;
59308;SDS011;48433;53.016;-2.260;2023-02-22T03:50:50;10.15;;;5.85;;
59308;SDS011;48433;53.016;-2.260;2023-02-22T03:53:20;13.70;;;7.50;;
59308;SDS011;48433;53.016;-2.260;2023-02-22T03:55:50;11.82;;;6.70;;
59308;SDS011;48433;53.016;-2.260;2023-02-22T03:58:22;13.57;;;6.68;;
59308;SDS011;48433;53.016;-2.260;2023-02-22T04:00:51;13.35;;;7.38;;
59308;SDS011;48433;53.016;-2.260;2023-02-22T04:03:20;11.43;;;6.47;;
59308;SDS011;48433;53.016;-2.260;2023-02-22T04:05:50;13.35;;;7.72;;
59308;SDS011;48433;53.016;-2.260;2023-02-22T04:08:18;12.68;;;6.63;;
59308;SDS011;48433;53.016;-2.260;2023-02-22T04:10:46;11.10;;;7.00;;
59308;SDS011;48433;53.016;-2.260;2023-02-22T04:13:16;11.13;;;6.47;;
59308;SDS011;48433;53.016;-2.260;2023-02-22T04:15:46;13.13;;;7.43;;
59308;SDS011;48433;53.016;-2.260;2023-02-22T04:18:14;14.80;;;6.80;;
59308;SDS011;48433;53.016;-2.260;2023-02-22T04:20:44;14.43;;;7.68;;
59308;SDS011;48433;53.016;-2.260;2023-02-22T04:23:20;12.10;;;6.93;;
59308;SDS011;48433;53.016;-2.260;2023-02-22T04:25:48;14.52;;;7.35;;
59308;SDS011;48433;53.016;-2.260;2023-02-22T04:28:16;11.77;;;7.05;;
59308;SDS011;48433;53.016;-2.260;2023-02-22T04:31:08;12.50;;;7.25;;
59308;SDS011;48433;53.016;-2.260;2023-02-22T04:33:36;13.05;;;7.03;;
59308;SDS011;48433;53.016;-2.260;2023-02-22T04:36:04;12.10;;;7.38;;
59308;SDS011;48433;53.016;-2.260;2023-02-22T04:38:34;12.13;;;7.20;;
59308;SDS011;48433;53.016;-2.260;2023-02-22T04:41:02;11.88;;;7.10;;
59308;SDS011;48433;53.016;-2.260;2023-02-22T04:43:30;12.00;;;6.32;;
59308;SDS011;48433;53.016;-2.260;2023-02-22T04:46:09;13.75;;;7.38;;
59308;SDS011;48433;53.016;-2.260;2023-02-22T04:48:36;14.15;;;7.63;;
59308;SDS011;48433;53.016;-2.260;2023-02-22T04:51:04;12.98;;;7.93;;
59308;SDS011;48433;53.016;-2.260;2023-02-22T04:53:32;14.02;;;7.63;;
59308;SDS011;48433;53.016;-2.260;2023-02-22T04:56:01;13.60;;;7.45;;
59308;SDS011;48433;53.016;-2.260;2023-02-22T04:58:29;13.73;;;7.47;;
59308;SDS011;48433;53.016;-2.260;2023-02-22T05:00:58;13.48;;;6.93;;
59308;SDS011;48433;53.016;-2.260;2023-02-22T05:03:26;12.35;;;7.60;;
59308;SDS011;48433;53.016;-2.260;2023-02-22T05:05:54;13.02;;;7.53;;
59308;SDS011;48433;53.016;-2.260;2023-02-22T05:08:22;14.27;;;8.15;;
59308;SDS011;48433;53.016;-2.260;2023-02-22T05:10:49;11.85;;;7.55;;
59308;SDS011;48433;53.016;-2.260;2023-02-22T05:13:17;12.63;;;7.55;;
59308;SDS011;48433;53.016;-2.260;2023-02-22T05:15:44;15.20;;;8.20;;
59308;SDS011;48433;53.016;-2.260;2023-02-22T05:18:12;12.93;;;6.95;;
59308;SDS011;48433;53.016;-2.260;2023-02-22T05:20:41;11.75;;;7.43;;
59308;SDS011;48433;53.016;-2.260;2023-02-22T05:23:08;14.93;;;7.55;;
59308;SDS011;48433;53.016;-2.260;2023-02-22T05:25:36;11.98;;;7.65;;
59308;SDS011;48433;53.016;-2.260;2023-02-22T05:28:07;14.10;;;7.65;;
59308;SDS011;48433;53.016;-2.260;2023-02-22T05:30:39;13.73;;;7.50;;
59308;SDS011;48433;53.016;-2.260;2023-02-22T05:33:07;13.88;;;7.88;;
59308;SDS011;48433;53.016;-2.260;2023-02-22T05:35:35;15.27;;;8.65;;
59308;SDS011;48433;53.016;-2.260;2023-02-22T05:38:03;14.15;;;8.30;;
59308;SDS011;48433;53.016;-2.260;2023-02-22T05:40:31;14.63;;;8.55;;
59308;SDS011;48433;53.016;-2.260;2023-02-22T05:42:59;15.15;;;8.70;;
59308;SDS011;48433;53.016;-2.260;2023-02-22T05:45:28;17.27;;;9.07;;
59308;SDS011;48433;53.016;-2.260;2023-02-22T05:47:56;18.70;;;9.88;;
59308;SDS011;48433;53.016;-2.260;2023-02-22T05:50:24;15.23;;;8.48;;
59308;SDS011;48433;53.016;-2.260;2023-02-22T05:52:52;17.52;;;9.93;;
59308;SDS011;48433;53.016;-2.260;2023-02-22T05:55:21;18.13;;;10.95;;
59308;SDS011;48433;53.016;-2.260;2023-02-22T05:57:50;15.38;;;9.48;;
59308;SDS011;48433;53.016;-2.260;2023-02-22T06:02:53;18.98;;;11.18;;
59308;SDS011;48433;53.016;-2.260;2023-02-22T06:05:25;20.95;;;12.20;;
59308;SDS011;48433;53.016;-2.260;2023-02-22T06:07:53;19.10;;;11.52;;
59308;SDS011;48433;53.016;-2.260;2023-02-22T06:10:22;20.25;;;11.27;;
59308;SDS011;48433;53.016;-2.260;2023-02-22T06:12:50;19.40;;;12.00;;
59308;SDS011;48433;53.016;-2.260;2023-02-22T06:15:20;20.23;;;12.40;;
59308;SDS011;48433;53.016;-2.260;2023-02-22T06:17:49;23.00;;;13.05;;
59308;SDS011;48433;53.016;-2.260;2023-02-22T06:20:18;21.30;;;12.13;;
59308;SDS011;48433;53.016;-2.260;2023-02-22T06:22:49;22.55;;;13.65;;
59308;SDS011;48433;53.016;-2.260;2023-02-22T06:25:19;20.90;;;12.18;;
59308;SDS011;48433;53.016;-2.260;2023-02-22T06:27:48;22.60;;;12.57;;
59308;SDS011;48433;53.016;-2.260;2023-02-22T06:30:16;24.63;;;14.02;;
59308;SDS011;48433;53.016;-2.260;2023-02-22T06:32:46;27.08;;;14.73;;
59308;SDS011;48433;53.016;-2.260;2023-02-22T06:35:14;27.08;;;14.95;;
59308;SDS011;48433;53.016;-2.260;2023-02-22T06:37:42;26.20;;;13.75;;
59308;SDS011;48433;53.016;-2.260;2023-02-22T06:40:11;26.98;;;14.90;;
59308;SDS011;48433;53.016;-2.260;2023-02-22T06:42:39;29.20;;;15.70;;
59308;SDS011;48433;53.016;-2.260;2023-02-22T06:45:07;27.33;;;15.50;;
59308;SDS011;48433;53.016;-2.260;2023-02-22T06:47:38;29.83;;;16.20;;
59308;SDS011;48433;53.016;-2.260;2023-02-22T06:50:23;27.42;;;16.50;;
59308;SDS011;48433;53.016;-2.260;2023-02-22T06:52:55;31.48;;;15.68;;
59308;SDS011;48433;53.016;-2.260;2023-02-22T06:55:24;29.15;;;17.73;;
59308;SDS011;48433;53.016;-2.260;2023-02-22T06:57:53;29.92;;;16.20;;
59308;SDS011;48433;53.016;-2.260;2023-02-22T07:00:22;38.30;;;18.25;;
59308;SDS011;48433;53.016;-2.260;2023-02-22T07:02:51;34.28;;;17.55;;
59308;SDS011;48433;53.016;-2.260;2023-02-22T07:05:20;31.10;;;18.05;;
59308;SDS011;48433;53.016;-2.260;2023-02-22T07:07:49;31.23;;;17.15;;
59308;SDS011;48433;53.016;-2.260;2023-02-22T07:10:20;30.17;;;16.23;;
59308;SDS011;48433;53.016;-2.260;2023-02-22T07:12:48;32.38;;;18.25;;
59308;SDS011;48433;53.016;-2.260;2023-02-22T07:15:16;30.30;;;16.38;;
59308;SDS011;48433;53.016;-2.260;2023-02-22T07:17:44;29.90;;;16.33;;
59308;SDS011;48433;53.016;-2.260;2023-02-22T07:20:12;29.65;;;16.48;;
59308;SDS011;48433;53.016;-2.260;2023-02-22T07:22:40;31.40;;;17.92;;
59308;SDS011;48433;53.016;-2.260;2023-02-22T07:25:08;32.78;;;17.77;;
59308;SDS011;48433;53.016;-2.260;2023-02-22T07:27:38;32.05;;;17.65;;
59308;SDS011;48433;53.016;-2.260;2023-02-22T07:30:09;35.13;;;18.65;;
59308;SDS011;48433;53.016;-2.260;2023-02-22T07:32:42;35.33;;;18.60;;
59308;SDS011;48433;53.016;-2.260;2023-02-22T07:35:30;31.60;;;16.88;;
59308;SDS011;48433;53.016;-2.260;2023-02-22T07:38:03;29.27;;;16.73;;
59308;SDS011;48433;53.016;-2.260;2023-02-22T07:40:34;34.72;;;18.73;;
59308;SDS011;48433;53.016;-2.260;2023-02-22T07:43:04;30.80;;;16.90;;
59308;SDS011;48433;53.016;-2.260;2023-02-22T07:45:40;32.35;;;17.05;;
59308;SDS011;48433;53.016;-2.260;2023-02-22T07:48:08;31.77;;;16.67;;
59308;SDS011;48433;53.016;-2.260;2023-02-22T07:50:35;30.42;;;16.60;;
59308;SDS011;48433;53.016;-2.260;2023-02-22T07:53:04;28.27;;;17.20;;
59308;SDS011;48433;53.016;-2.260;2023-02-22T07:55:34;31.33;;;17.98;;
59308;SDS011;48433;53.016;-2.260;2023-02-22T07:58:03;31.02;;;16.88;;
59308;SDS011;48433;53.016;-2.260;2023-02-22T08:00:36;24.92;;;15.10;;
59308;SDS011;48433;53.016;-2.260;2023-02-22T08:03:11;29.73;;;15.88;;
59308;SDS011;48433;53.016;-2.260;2023-02-22T08:05:40;27.88;;;15.70;;
59308;SDS011;48433;53.016;-2.260;2023-02-22T08:08:11;25.73;;;14.45;;
59308;SDS011;48433;53.016;-2.260;2023-02-22T08:10:40;24.83;;;12.23;;
59308;SDS011;48433;53.016;-2.260;2023-02-22T08:13:08;22.50;;;12.52;;
59308;SDS011;48433;53.016;-2.260;2023-02-22T08:15:38;24.52;;;11.57;;
59308;SDS011;48433;53.016;-2.260;2023-02-22T08:18:09;20.67;;;10.90;;
59308;SDS011;48433;53.016;-2.260;2023-02-22T08:20:39;17.35;;;11.07;;
59308;SDS011;48433;53.016;-2.260;2023-02-22T08:23:09;16.10;;;9.10;;
59308;SDS011;48433;53.016;-2.260;2023-02-22T08:25:38;19.40;;;11.07;;
59308;SDS011;48433;53.016;-2.260;2023-02-22T08:28:08;16.65;;;8.90;;
59308;SDS011;48433;53.016;-2.260;2023-02-22T08:30:38;10.60;;;6.32;;
59308;SDS011;48433;53.016;-2.260;2023-02-22T08:33:10;10.70;;;6.28;;
59308;SDS011;48433;53.016;-2.260;2023-02-22T08:35:40;11.32;;;6.53;;
59308;SDS011;48433;53.016;-2.260;2023-02-22T08:38:14;9.73;;;4.95;;
59308;SDS011;48433;53.016;-2.260;2023-02-22T08:40:44;10.68;;;6.13;;
59308;SDS011;48433;53.016;-2.260;2023-02-22T08:43:13;10.68;;;4.63;;
59308;SDS011;48433;53.016;-2.260;2023-02-22T08:45:41;9.10;;;5.05;;
59308;SDS011;48433;53.016;-2.260;2023-02-22T08:48:10;11.40;;;4.60;;
59308;SDS011;48433;53.016;-2.260;2023-02-22T08:50:40;11.98;;;4.85;;
59308;SDS011;48433;53.016;-2.260;2023-02-22T08:53:08;10.93;;;5.05;;
59308;SDS011;48433;53.016;-2.260;2023-02-22T08:55:39;8.75;;;4.43;;
59308;SDS011;48433;53.016;-2.260;2023-02-22T08:58:08;9.60;;;5.07;;
59308;SDS011;48433;53.016;-2.260;2023-02-22T09:00:37;9.48;;;4.93;;
59308;SDS011;48433;53.016;-2.260;2023-02-22T09:03:06;10.70;;;4.28;;
59308;SDS011;48433;53.016;-2.260;2023-02-22T09:05:36;10.82;;;4.53;;
59308;SDS011;48433;53.016;-2.260;2023-02-22T09:08:04;11.57;;;4.22;;
59308;SDS011;48433;53.016;-2.260;2023-02-22T09:10:33;9.05;;;3.63;;
59308;SDS011;48433;53.016;-2.260;2023-02-22T09:13:01;10.40;;;3.92;;
59308;SDS011;48433;53.016;-2.260;2023-02-22T09:15:31;10.55;;;3.05;;
59308;SDS011;48433;53.016;-2.260;2023-02-22T09:18:02;9.40;;;3.28;;
59308;SDS011;48433;53.016;-2.260;2023-02-22T09:20:31;7.18;;;2.85;;
59308;SDS011;48433;53.016;-2.260;2023-02-22T09:22:58;8.80;;;2.65;;
59308;SDS011;48433;53.016;-2.260;2023-02-22T09:25:28;8.50;;;2.40;;
59308;SDS011;48433;53.016;-2.260;2023-02-22T09:27:56;3.78;;;1.80;;
59308;SDS011;48433;53.016;-2.260;2023-02-22T09:32:54;6.50;;;1.75;;
59308;SDS011;48433;53.016;-2.260;2023-02-22T09:35:25;5.78;;;2.10;;
59308;SDS011;48433;53.016;-2.260;2023-02-22T09:38:13;9.52;;;2.17;;
59308;SDS011;48433;53.016;-2.260;2023-02-22T09:40:48;13.25;;;2.28;;
59308;SDS011;48433;53.016;-2.260;2023-02-22T09:43:37;5.82;;;2.45;;
59308;SDS011;48433;53.016;-2.260;2023-02-22T09:57:21;5.82;;;2.60;;
59308;SDS011;48433;53.016;-2.260;2023-02-22T10:00:14;8.80;;;4.30;;
59308;SDS011;48433;53.016;-2.260;2023-02-22T10:02:51;7.03;;;3.90;;
59308;SDS011;48433;53.016;-2.260;2023-02-22T10:05:46;7.80;;;3.70;;
59308;SDS011;48433;53.016;-2.260;2023-02-22T10:08:19;8.20;;;3.65;;
59308;SDS011;48433;53.016;-2.260;2023-02-22T10:10:50;6.55;;;3.75;;
59308;SDS011;48433;53.016;-2.260;2023-02-22T10:13:43;6.20;;;2.63;;
59308;SDS011;48433;53.016;-2.260;2023-02-22T10:21:43;6.50;;;2.30;;
59308;SDS011;48433;53.016;-2.260;2023-02-22T10:24:27;6.20;;;2.00;;
59308;SDS011;48433;53.016;-2.260;2023-02-22T10:30:25;7.45;;;2.42;;
59308;SDS011;48433;53.016;-2.260;2023-02-22T10:33:22;6.18;;;2.97;;
59308;SDS011;48433;53.016;-2.260;2023-02-22T10:35:56;8.52;;;3.92;;
59308;SDS011;48433;53.016;-2.260;2023-02-22T10:38:26;7.15;;;4.22;;
59308;SDS011;48433;53.016;-2.260;2023-02-22T10:40:59;13.38;;;4.05;;
59308;SDS011;48433;53.016;-2.260;2023-02-22T10:43:36;8.73;;;4.15;;
59308;SDS011;48433;53.016;-2.260;2023-02-22T10:46:07;8.52;;;4.10;;
59308;SDS011;48433;53.016;-2.260;2023-02-22T10:48:40;6.75;;;4.13;;
59308;SDS011;48433;53.016;-2.260;2023-02-22T10:51:11;8.00;;;3.65;;
59308;SDS011;48433;53.016;-2.260;2023-02-22T10:53:39;7.95;;;3.65;;
59308;SDS011;48433;53.016;-2.260;2023-02-22T10:56:15;11.68;;;4.00;;
59308;SDS011;48433;53.016;-2.260;2023-02-22T11:03:59;6.78;;;3.00;;
59308;SDS011;48433;53.016;-2.260;2023-02-22T11:06:37;7.78;;;2.85;;
59308;SDS011;48433;53.016;-2.260;2023-02-22T11:09:17;5.97;;;2.75;;
59308;SDS011;48433;53.016;-2.260;2023-02-22T11:11:49;5.60;;;2.83;;
59308;SDS011;48433;53.016;-2.260;2023-02-22T11:14:33;6.07;;;2.33;;
59308;SDS011;48433;53.016;-2.260;2023-02-22T11:17:04;5.90;;;2.50;;
59308;SDS011;48433;53.016;-2.260;2023-02-22T11:19:34;5.70;;;2.78;;
59308;SDS011;48433;53.016;-2.260;2023-02-22T11:24:47;9.00;;;3.10;;
59308;SDS011;48433;53.016;-2.260;2023-02-22T11:32:44;7.68;;;3.78;;
59308;SDS011;48433;53.016;-2.260;2023-02-22T11:37:52;12.15;;;6.88;;
59308;SDS011;48433;53.016;-2.260;2023-02-22T11:40:21;11.80;;;3.45;;
59308;SDS011;48433;53.016;-2.260;2023-02-22T11:43:04;7.45;;;3.30;;
59308;SDS011;48433;53.016;-2.260;2023-02-22T11:45:38;8.32;;;3.50;;
59308;SDS011;48433;53.016;-2.260;2023-02-22T11:48:17;8.15;;;4.13;;
59308;SDS011;48433;53.016;-2.260;2023-02-22T11:51:08;8.63;;;4.00;;
59308;SDS011;48433;53.016;-2.260;2023-02-22T11:53:48;7.13;;;4.20;;
59308;SDS011;48433;53.016;-2.260;2023-02-22T11:56:23;7.57;;;3.88;;
59308;SDS011;48433;53.016;-2.260;2023-02-22T12:02:27;8.32;;;3.40;;
59308;SDS011;48433;53.016;-2.260;2023-02-22T12:05:25;5.72;;;2.47;;
59308;SDS011;48433;53.016;-2.260;2023-02-22T12:13:25;5.38;;;2.10;;
59308;SDS011;48433;53.016;-2.260;2023-02-22T12:16:23;7.00;;;2.50;;
59308;SDS011;48433;53.016;-2.260;2023-02-22T12:19:32;5.38;;;2.38;;
59308;SDS011;48433;53.016;-2.260;2023-02-22T12:25:01;7.38;;;2.10;;
59308;SDS011;48433;53.016;-2.260;2023-02-22T12:27:46;7.45;;;2.13;;
59308;SDS011;48433;53.016;-2.260;2023-02-22T12:30:23;4.93;;;1.60;;
59308;SDS011;48433;53.016;-2.260;2023-02-22T12:33:37;5.53;;;1.65;;
59308;SDS011;48433;53.016;-2.260;2023-02-22T12:35:57;6.35;;;1.88;;
59308;SDS011;48433;53.016;-2.260;2023-02-22T12:38:32;4.47;;;1.50;;
59308;SDS011;48433;53.016;-2.260;2023-02-22T12:43:45;5.72;;;1.52;;
59308;SDS011;48433;53.016;-2.260;2023-02-22T12:46:54;10.13;;;2.47;;
59308;SDS011;48433;53.016;-2.260;2023-02-22T13:00:25;4.32;;;1.95;;
59308;SDS011;48433;53.016;-2.260;2023-02-22T13:02:59;6.70;;;1.80;;
59308;SDS011;48433;53.016;-2.260;2023-02-22T13:05:34;7.95;;;2.20;;
59308;SDS011;48433;53.016;-2.260;2023-02-22T13:08:12;5.60;;;1.60;;
59308;SDS011;48433;53.016;-2.260;2023-02-22T13:13:35;7.78;;;1.80;;
59308;SDS011;48433;53.016;-2.260;2023-02-22T13:27:19;5.80;;;1.40;;
59308;SDS011;48433;53.016;-2.260;2023-02-22T13:30:18;8.27;;;2.00;;
59308;SDS011;48433;53.016;-2.260;2023-02-22T13:41:49;10.15;;;3.05;;
59308;SDS011;48433;53.016;-2.260;2023-02-22T13:52:49;8.55;;;1.55;;
59308;SDS011;48433;53.016;-2.260;2023-02-22T13:55:24;7.50;;;2.17;;
59308;SDS011;48433;53.016;-2.260;2023-02-22T13:57:58;8.93;;;1.92;;
59308;SDS011;48433;53.016;-2.260;2023-02-22T14:06:03;9.93;;;2.10;;
59308;SDS011;48433;53.016;-2.260;2023-02-22T14:11:00;6.30;;;1.67;;
59308;SDS011;48433;53.016;-2.260;2023-02-22T14:14:07;3.22;;;1.23;;
59308;SDS011;48433;53.016;-2.260;2023-02-22T14:16:27;5.95;;;1.38;;
59308;SDS011;48433;53.016;-2.260;2023-02-22T14:19:02;8.02;;;1.70;;
59308;SDS011;48433;53.016;-2.260;2023-02-22T14:27:11;7.50;;;2.25;;
59308;SDS011;48433;53.016;-2.260;2023-02-22T14:29:50;6.78;;;1.60;;
59308;SDS011;48433;53.016;-2.260;2023-02-22T14:32:27;7.18;;;1.88;;
59308;SDS011;48433;53.016;-2.260;2023-02-22T14:35:05;7.95;;;3.15;;
59308;SDS011;48433;53.016;-2.260;2023-02-22T14:37:56;8.18;;;1.85;;
59308;SDS011;48433;53.016;-2.260;2023-02-22T14:40:27;9.82;;;1.98;;
59308;SDS011;48433;53.016;-2.260;2023-02-22T14:43:02;9.40;;;1.70;;
59308;SDS011;48433;53.016;-2.260;2023-02-22T14:45:36;9.77;;;1.63;;
59308;SDS011;48433;53.016;-2.260;2023-02-22T14:48:17;6.40;;;2.00;;
59308;SDS011;48433;53.016;-2.260;2023-02-22T14:51:12;6.93;;;1.90;;
59308;SDS011;48433;53.016;-2.260;2023-02-22T14:53:50;9.82;;;2.10;;
59308;SDS011;48433;53.016;-2.260;2023-02-22T14:56:21;9.77;;;2.15;;
59308;SDS011;48433;53.016;-2.260;2023-02-22T15:01:47;10.45;;;2.20;;
59308;SDS011;48433;53.016;-2.260;2023-02-22T15:04:35;11.45;;;2.08;;
59308;SDS011;48433;53.016;-2.260;2023-02-22T15:07:08;10.52;;;2.22;;
59308;SDS011;48433;53.016;-2.260;2023-02-22T15:12:57;9.57;;;2.20;;
59308;SDS011;48433;53.016;-2.260;2023-02-22T15:15:46;7.22;;;1.75;;
59308;SDS011;48433;53.016;-2.260;2023-02-22T15:21:10;6.28;;;2.15;;
59308;SDS011;48433;53.016;-2.260;2023-02-22T15:23:48;8.52;;;1.80;;
59308;SDS011;48433;53.016;-2.260;2023-02-22T15:26:42;10.70;;;1.70;;
59308;SDS011;48433;53.016;-2.260;2023-02-22T15:29:48;10.32;;;2.13;;
59308;SDS011;48433;53.016;-2.260;2023-02-22T15:32:19;12.57;;;2.92;;
59308;SDS011;48433;53.016;-2.260;2023-02-22T15:34:53;10.75;;;1.95;;
59308;SDS011;48433;53.016;-2.260;2023-02-22T15:37:23;6.70;;;2.00;;
59308;SDS011;48433;53.016;-2.260;2023-02-22T15:40:04;10.52;;;3.38;;
59308;SDS011;48433;53.016;-2.260;2023-02-22T15:42:40;6.72;;;1.98;;
59308;SDS011;48433;53.016;-2.260;2023-02-22T15:45:16;9.18;;;2.30;;
59308;SDS011;48433;53.016;-2.260;2023-02-22T15:47:51;10.05;;;2.10;;
59308;SDS011;48433;53.016;-2.260;2023-02-22T15:50:25;8.38;;;1.67;;
59308;SDS011;48433;53.016;-2.260;2023-02-22T15:55:36;6.05;;;1.35;;
59308;SDS011;48433;53.016;-2.260;2023-02-22T15:58:24;6.75;;;1.55;;
59308;SDS011;48433;53.016;-2.260;2023-02-22T16:01:12;7.22;;;1.70;;
59308;SDS011;48433;53.016;-2.260;2023-02-22T16:03:46;2.72;;;1.08;;
59308;SDS011;48433;53.016;-2.260;2023-02-22T16:06:31;8.27;;;1.60;;
59308;SDS011;48433;53.016;-2.260;2023-02-22T16:09:07;6.90;;;2.17;;
59308;SDS011;48433;53.016;-2.260;2023-02-22T16:11:44;11.45;;;1.70;;
59308;SDS011;48433;53.016;-2.260;2023-02-22T16:16:49;5.63;;;1.42;;
59308;SDS011;48433;53.016;-2.260;2023-02-22T16:19:37;8.18;;;1.50;;
59308;SDS011;48433;53.016;-2.260;2023-02-22T16:22:22;5.10;;;1.70;;
59308;SDS011;48433;53.016;-2.260;2023-02-22T16:28:23;9.75;;;1.70;;
59308;SDS011;48433;53.016;-2.260;2023-02-22T16:30:56;6.35;;;1.63;;
59308;SDS011;48433;53.016;-2.260;2023-02-22T16:33:24;7.32;;;1.95;;
59308;SDS011;48433;53.016;-2.260;2023-02-22T16:35:55;7.03;;;1.90;;
59308;SDS011;48433;53.016;-2.260;2023-02-22T16:38:23;6.05;;;1.55;;
59308;SDS011;48433;53.016;-2.260;2023-02-22T16:40:54;3.53;;;1.20;;
59308;SDS011;48433;53.016;-2.260;2023-02-22T16:43:25;3.92;;;1.23;;
59308;SDS011;48433;53.016;-2.260;2023-02-22T16:48:25;3.33;;;1.40;;
59308;SDS011;48433;53.016;-2.260;2023-02-22T16:50:57;2.35;;;1.13;;
59308;SDS011;48433;53.016;-2.260;2023-02-22T16:56:02;3.60;;;1.40;;
59308;SDS011;48433;53.016;-2.260;2023-02-22T16:58:32;4.55;;;1.60;;
59308;SDS011;48433;53.016;-2.260;2023-02-22T17:03:31;4.32;;;1.65;;
59308;SDS011;48433;53.016;-2.260;2023-02-22T17:05:59;5.22;;;2.17;;
59308;SDS011;48433;53.016;-2.260;2023-02-22T17:08:27;3.95;;;1.50;;
59308;SDS011;48433;53.016;-2.260;2023-02-22T17:10:55;7.15;;;4.32;;
59308;SDS011;48433;53.016;-2.260;2023-02-22T17:15:55;4.15;;;1.48;;
59308;SDS011;48433;53.016;-2.260;2023-02-22T17:18:24;4.18;;;1.55;;
59308;SDS011;48433;53.016;-2.260;2023-02-22T17:20:55;7.47;;;2.03;;
59308;SDS011;48433;53.016;-2.260;2023-02-22T17:23:22;5.90;;;1.83;;
59308;SDS011;48433;53.016;-2.260;2023-02-22T17:25:51;4.28;;;1.70;;
59308;SDS011;48433;53.016;-2.260;2023-02-22T17:28:22;5.90;;;2.40;;
59308;SDS011;48433;53.016;-2.260;2023-02-22T17:30:51;5.97;;;2.70;;
59308;SDS011;48433;53.016;-2.260;2023-02-22T17:33:21;7.60;;;2.85;;
59308;SDS011;48433;53.016;-2.260;2023-02-22T17:35:53;6.20;;;2.67;;
59308;SDS011;48433;53.016;-2.260;2023-02-22T17:38:24;8.55;;;3.00;;
59308;SDS011;48433;53.016;-2.260;2023-02-22T17:40:55;5.90;;;2.50;;
59308;SDS011;48433;53.016;-2.260;2023-02-22T17:43:25;5.18;;;2.70;;
59308;SDS011;48433;53.016;-2.260;2023-02-22T17:48:24;5.13;;;2.00;;
59308;SDS011;48433;53.016;-2.260;2023-02-22T17:50:52;6.78;;;2.10;;
59308;SDS011;48433;53.016;-2.260;2023-02-22T17:53:20;6.32;;;2.22;;
59308;SDS011;48433;53.016;-2.260;2023-02-22T17:55:51;5.65;;;2.55;;
59308;SDS011;48433;53.016;-2.260;2023-02-22T17:58:19;5.28;;;2.58;;